This is the latest recevied weather packets stored in our database for station/object KE1THD. If no packets are shown the sender has not sent any weather packets the latest 1 day(s).
| Time | Temp. | Humidity | Pressure | Rain* | Wind** | Luminosity | Snow |
|---|---|---|---|---|---|---|---|
| 1777985990 | 10° C | 53% | 1010.2 hPa | 0 mm | 0.89 m/s, 248° | 142 W/m² | - |
| 1777985688 | 9.44° C | 53% | 1010.4 hPa | 0 mm | 0.45 m/s, 263° | 116 W/m² | - |
| 1777985384 | 9.44° C | 52% | 1010.7 hPa | 0 mm | 1.79 m/s, 8° | 126 W/m² | - |
| 1777985081 | 9.44° C | 53% | 1010.8 hPa | 0 mm | 1.34 m/s, 241° | 91 W/m² | - |
| 1777984777 | 9.44° C | 54% | 1010.9 hPa | 0 mm | 1.79 m/s, 302° | 68 W/m² | - |
| 1777984474 | 9.44° C | 53% | 1010.8 hPa | 0 mm | 1.79 m/s, 297° | 79 W/m² | - |
| 1777984169 | 9.44° C | 54% | 1010.8 hPa | 0 mm | 1.34 m/s, 301° | 81 W/m² | - |
| 1777983867 | 9.44° C | 54% | 1010.5 hPa | 0 mm | 0 m/s | 75 W/m² | - |
| 1777983564 | 8.89° C | 54% | 1010.9 hPa | 0 mm | 0.89 m/s, 288° | 62 W/m² | - |
| 1777983261 | 8.89° C | 55% | 1010.6 hPa | 0 mm | 0.89 m/s, 263° | 61 W/m² | - |
| 1777982956 | 8.89° C | 54% | 1010.8 hPa | 0 mm | 0.89 m/s, 271° | 67 W/m² | - |
| 1777982653 | 8.89° C | 54% | 1010.7 hPa | 0 mm | 1.34 m/s, 263° | 61 W/m² | - |
| 1777982352 | 8.89° C | 56% | 1010.6 hPa | 0 mm | 0.89 m/s, 273° | 53 W/m² | - |
| 1777982049 | 8.89° C | 56% | 1010.5 hPa | 0 mm | 0.45 m/s, 265° | 46 W/m² | - |
| 1777981747 | 8.89° C | 57% | 1010.5 hPa | 0 mm | 0 m/s | 33 W/m² | - |
| 1777981443 | 8.89° C | 57% | 1010.1 hPa | 0 mm | 0 m/s | 24 W/m² | - |
| 1777981139 | 8.89° C | 57% | 1010.4 hPa | 0 mm | 0.45 m/s, 225° | 20 W/m² | - |
| 1777980836 | 8.89° C | 58% | 1010.1 hPa | 0 mm | 0 m/s | 18 W/m² | - |
| 1777980532 | 8.89° C | 60% | 1010.1 hPa | 0 mm | 0 m/s | 13 W/m² | - |
| 1777980230 | 8.33° C | 59% | 1010.1 hPa | 0 mm | 0 m/s | 7 W/m² | - |
| 1777979925 | 8.33° C | 62% | 1010.2 hPa | 0 mm | 0.45 m/s, 199° | 0 W/m² | - |
| 1777979621 | 8.33° C | 61% | 1010.3 hPa | 0 mm | 0.89 m/s, 242° | 0 W/m² | - |
| 1777979317 | 8.33° C | 63% | 1010 hPa | 0 mm | 0.45 m/s, 200° | 0 W/m² | - |
| 1777979014 | 8.89° C | 59% | 1009.8 hPa | 0 mm | 0.45 m/s, 202° | 0 W/m² | - |
| 1777978711 | 8.89° C | 59% | 1009.1 hPa | 0 mm | 0.45 m/s, 229° | 0 W/m² | - |
* Rain latest hour (hover to see other rain measurements)
** Current wind speed in m/s (hover to see current wind gust speed)